createdAt,value
2019-04-05T00:00:10.528Z,7.03
2019-04-05T00:02:39.875Z,8.90
2019-04-05T00:05:09.740Z,7.40
2019-04-05T00:07:39.008Z,8.15
2019-04-05T00:10:09.998Z,7.58
2019-04-05T00:12:39.588Z,7.35
2019-04-05T00:15:15.544Z,6.60
2019-04-05T00:17:40.955Z,8.45
2019-04-05T00:20:10.971Z,8.85
2019-04-05T00:22:40.594Z,7.37
2019-04-05T00:25:10.288Z,9.35
2019-04-05T00:27:39.891Z,9.88
2019-04-05T00:30:11.035Z,8.83
2019-04-05T00:32:40.649Z,7.20
2019-04-05T00:35:09.999Z,7.17
2019-04-05T00:37:39.267Z,8.95
2019-04-05T00:40:11.786Z,9.33
2019-04-05T00:42:41.326Z,8.00
2019-04-05T00:45:10.757Z,9.78
2019-04-05T00:47:40.024Z,10.15
2019-04-05T00:50:10.341Z,8.58
2019-04-05T00:52:39.990Z,9.40
2019-04-05T00:55:10.286Z,8.20
2019-04-05T00:57:39.619Z,9.53
2019-04-05T01:00:10.143Z,10.03
2019-04-05T01:02:39.733Z,10.30
2019-04-05T01:05:09.444Z,10.08
2019-04-05T01:07:39.048Z,11.20
2019-04-05T01:10:08.738Z,10.00
2019-04-05T01:12:39.392Z,10.58
2019-04-05T01:15:11.146Z,9.90
2019-04-05T01:17:40.949Z,10.63
2019-04-05T01:20:11.127Z,9.18
2019-04-05T01:22:41.831Z,12.45
2019-04-05T01:25:12.035Z,9.25
2019-04-05T01:27:42.044Z,11.33
2019-04-05T01:30:14.699Z,11.80
2019-04-05T01:32:43.968Z,10.43
2019-04-05T01:35:13.315Z,11.35
2019-04-05T01:37:42.826Z,10.58
2019-04-05T01:40:12.647Z,10.25
2019-04-05T01:42:42.404Z,12.00
2019-04-05T01:45:12.623Z,10.50
2019-04-05T01:47:42.581Z,8.78
2019-04-05T01:50:12.507Z,12.37
2019-04-05T01:52:43.020Z,11.63
2019-04-05T01:55:14.592Z,12.82
2019-04-05T01:57:44.210Z,13.05
2019-04-05T02:00:14.322Z,12.90
2019-04-05T02:02:43.953Z,13.48
2019-04-05T02:05:14.186Z,15.63
2019-04-05T02:07:44.065Z,13.50
2019-04-05T02:10:13.840Z,12.95
2019-04-05T02:12:43.387Z,13.08
2019-04-05T02:15:20.569Z,15.65
2019-04-05T02:17:49.847Z,12.28
2019-04-05T02:20:19.474Z,11.90
2019-04-05T02:22:48.746Z,15.30
2019-04-05T02:25:18.278Z,12.45
2019-04-05T02:27:47.911Z,15.63
2019-04-05T02:30:18.100Z,15.63
2019-04-05T02:32:47.827Z,15.23
2019-04-05T02:35:17.173Z,15.45
2019-04-05T02:37:47.043Z,16.40
2019-04-05T02:40:17.978Z,17.07
2019-04-05T02:42:50.764Z,15.38
2019-04-05T02:45:20.893Z,15.53
2019-04-05T02:47:54.113Z,17.48
2019-04-05T02:50:27.317Z,17.27
2019-04-05T02:52:59.955Z,12.88
2019-04-05T02:55:30.231Z,13.88
2019-04-05T02:58:01.773Z,13.20
2019-04-05T03:00:32.858Z,16.40
2019-04-05T03:03:04.166Z,14.80
2019-04-05T03:05:33.581Z,13.60
2019-04-05T03:08:03.315Z,15.65
2019-04-05T03:11:07.158Z,13.88
2019-04-05T03:13:47.182Z,13.58
2019-04-05T03:16:40.127Z,13.18
2019-04-05T03:19:07.895Z,14.83
2019-04-05T03:21:41.123Z,11.22
2019-04-05T03:24:14.327Z,13.20
2019-04-05T03:26:48.307Z,11.70
2019-04-05T03:29:17.629Z,11.15
2019-04-05T03:31:47.054Z,12.80
2019-04-05T03:34:17.570Z,12.98
2019-04-05T03:36:46.903Z,12.28
2019-04-05T03:39:16.632Z,13.03
2019-04-05T03:41:45.979Z,12.40
2019-04-05T03:44:15.672Z,13.62
2019-04-05T03:46:56.327Z,11.43
2019-04-05T03:49:15.982Z,14.80
2019-04-05T03:51:45.720Z,11.73
2019-04-05T03:54:15.050Z,13.10
2019-04-05T03:56:44.610Z,13.20
2019-04-05T03:59:14.419Z,15.90
2019-04-05T04:01:43.773Z,16.65
2019-04-05T04:04:13.463Z,16.32
2019-04-05T04:06:43.552Z,14.07
2019-04-05T04:09:13.365Z,16.90
2019-04-05T04:11:42.959Z,13.85
2019-04-05T04:14:12.569Z,11.75
2019-04-05T04:16:42.281Z,15.23
2019-04-05T04:19:12.930Z,15.10
2019-04-05T04:21:53.086Z,15.23
2019-04-05T04:24:22.513Z,14.85
2019-04-05T04:26:52.706Z,15.38
2019-04-05T04:29:22.134Z,15.23
2019-04-05T04:31:51.830Z,13.35
2019-04-05T04:34:21.339Z,14.83
2019-04-05T04:36:50.936Z,12.15
2019-04-05T04:39:21.341Z,12.85
2019-04-05T04:41:50.961Z,12.20
2019-04-05T04:44:20.497Z,14.98
2019-04-05T04:46:50.011Z,11.97
2019-04-05T04:49:19.678Z,9.75
2019-04-05T04:51:49.493Z,12.28
2019-04-05T04:54:19.514Z,12.98
2019-04-05T04:56:48.789Z,13.58
2019-04-05T04:59:18.055Z,13.20
2019-04-05T05:01:47.575Z,11.15
2019-04-05T05:04:16.840Z,11.35
2019-04-05T05:06:46.105Z,11.40
2019-04-05T05:09:15.642Z,10.23
2019-04-05T05:11:44.915Z,11.60
2019-04-05T05:14:14.515Z,12.82
2019-04-05T05:16:43.861Z,10.55
2019-04-05T05:19:13.397Z,12.18
2019-04-05T05:21:42.740Z,11.68
2019-04-05T05:24:12.373Z,12.00
2019-04-05T05:26:42.365Z,9.68
2019-04-05T05:29:11.808Z,10.23
2019-04-05T05:31:41.480Z,11.25
2019-04-05T05:34:10.816Z,12.37
2019-04-05T05:36:40.383Z,10.50
2019-04-05T05:39:09.919Z,11.35
2019-04-05T05:41:39.198Z,10.65
2019-04-05T05:44:08.616Z,10.98
2019-04-05T05:46:37.887Z,11.93
2019-04-05T05:49:07.402Z,10.50
2019-04-05T05:51:37.460Z,11.97
2019-04-05T05:54:07.132Z,9.23
2019-04-05T05:56:36.411Z,11.43
2019-04-05T05:59:06.032Z,10.95
2019-04-05T06:01:35.308Z,11.80
2019-04-05T06:04:04.741Z,8.48
2019-04-05T06:06:34.343Z,10.48
2019-04-05T06:09:05.453Z,10.78
2019-04-05T06:11:34.993Z,8.60
2019-04-05T06:14:04.287Z,9.25
2019-04-05T06:16:45.786Z,9.08
2019-04-05T06:19:05.247Z,8.90
2019-04-05T06:21:34.857Z,9.15
2019-04-05T06:24:05.333Z,9.33
2019-04-05T06:26:35.917Z,9.43
2019-04-05T06:29:05.342Z,9.38
2019-04-05T06:31:35.031Z,11.90
2019-04-05T06:34:04.312Z,8.58
2019-04-05T06:36:33.829Z,12.20
2019-04-05T06:39:04.756Z,9.03
2019-04-05T06:41:34.379Z,10.32
2019-04-05T06:44:03.669Z,10.20
2019-04-05T06:46:32.934Z,8.85
2019-04-05T06:49:02.214Z,10.23
2019-04-05T06:51:31.481Z,9.63
2019-04-05T06:54:03.362Z,10.43
2019-04-05T06:56:32.435Z,9.43
2019-04-05T06:59:03.044Z,9.95
2019-04-05T07:01:32.585Z,9.63
2019-04-05T07:04:01.861Z,9.25
2019-04-05T07:06:31.131Z,8.53
2019-04-05T07:09:00.680Z,8.58
2019-04-05T07:11:30.285Z,9.70
2019-04-05T07:13:59.818Z,9.10
2019-04-05T07:16:29.092Z,9.00
2019-04-05T07:18:58.697Z,9.83
2019-04-05T07:21:28.307Z,9.53
2019-04-05T07:23:57.915Z,9.57
2019-04-05T07:26:27.527Z,8.88
2019-04-05T07:28:57.131Z,8.38
2019-04-05T07:31:26.747Z,9.70
2019-04-05T07:33:56.495Z,10.13
2019-04-05T07:36:25.696Z,9.28
2019-04-05T07:38:55.030Z,11.30
2019-04-05T07:41:24.254Z,11.55
2019-04-05T07:43:53.539Z,10.30
2019-04-05T07:46:22.811Z,12.53
2019-04-05T07:48:52.095Z,10.78
2019-04-05T07:51:22.827Z,11.93
2019-04-05T07:53:52.397Z,12.30
2019-04-05T07:56:22.016Z,14.07
2019-04-05T07:58:51.259Z,11.30
2019-04-05T08:01:20.857Z,12.70
2019-04-05T08:03:50.076Z,13.30
2019-04-05T08:06:19.677Z,14.00
2019-04-05T08:08:55.647Z,15.33
2019-04-05T08:11:26.321Z,16.47
2019-04-05T08:13:58.090Z,14.23
2019-04-05T08:16:27.665Z,19.20
2019-04-05T08:18:58.374Z,15.23
2019-04-05T08:21:27.701Z,13.50
2019-04-05T08:23:57.309Z,15.50
2019-04-05T08:26:26.592Z,17.33
2019-04-05T08:28:56.215Z,15.63
2019-04-05T08:31:25.821Z,13.10
2019-04-05T08:33:55.106Z,14.90
2019-04-05T08:36:24.393Z,14.60
2019-04-05T08:38:53.670Z,17.30
2019-04-05T08:41:22.948Z,17.40
2019-04-05T08:43:52.226Z,17.43
2019-04-05T08:46:21.782Z,17.40
2019-04-05T08:48:52.362Z,15.87
2019-04-05T08:51:21.821Z,19.23
2019-04-05T08:53:51.098Z,16.00
2019-04-05T08:56:20.388Z,17.47
2019-04-05T08:58:49.671Z,17.57
2019-04-05T09:01:18.977Z,17.77
2019-04-05T09:03:48.255Z,17.03
2019-04-05T09:06:17.542Z,16.93
2019-04-05T09:08:46.825Z,17.63
2019-04-05T09:11:16.118Z,19.10
2019-04-05T09:13:45.668Z,17.17
2019-04-05T09:16:14.966Z,19.87
2019-04-05T09:18:44.581Z,16.87
2019-04-05T09:21:14.210Z,20.10
2019-04-05T09:23:43.793Z,16.60
2019-04-05T09:26:13.079Z,15.77
2019-04-05T09:28:42.706Z,16.53
2019-04-05T09:31:12.308Z,16.80
2019-04-05T09:33:41.593Z,16.30
2019-04-05T09:36:11.213Z,18.90
2019-04-05T09:38:40.820Z,16.80
2019-04-05T09:41:10.111Z,19.50
2019-04-05T09:43:39.400Z,19.90
2019-04-05T09:46:08.681Z,16.40
2019-04-05T09:48:38.232Z,15.30
2019-04-05T09:51:07.852Z,17.93
2019-04-05T09:53:37.119Z,17.70
2019-04-05T09:56:06.408Z,21.33
2019-04-05T09:58:35.687Z,14.63
2019-04-05T10:01:05.128Z,14.23
2019-04-05T10:03:34.751Z,13.27
2019-04-05T10:06:04.569Z,14.43
2019-04-05T10:08:33.853Z,12.83
2019-04-05T10:11:03.136Z,16.40
2019-04-05T10:13:32.773Z,13.63
2019-04-05T10:16:02.067Z,15.77
2019-04-05T10:18:31.347Z,12.50
2019-04-05T10:21:00.633Z,13.27
2019-04-05T10:23:30.173Z,14.07
2019-04-05T10:25:59.786Z,11.23
2019-04-05T10:28:29.391Z,12.60
2019-04-05T10:30:58.998Z,13.00
2019-04-05T10:33:28.611Z,12.80
2019-04-05T10:35:58.221Z,11.60
2019-04-05T10:38:27.744Z,13.70
2019-04-05T10:40:57.330Z,14.27
2019-04-05T10:43:26.621Z,15.97
2019-04-05T10:45:56.153Z,14.00
2019-04-05T10:48:25.436Z,14.43
2019-04-05T10:50:54.711Z,15.43
2019-04-05T10:53:24.041Z,15.60
2019-04-05T10:55:53.318Z,17.20
2019-04-05T10:58:22.608Z,15.93
2019-04-05T11:00:52.030Z,15.60
2019-04-05T11:03:21.315Z,14.93
2019-04-05T11:05:50.598Z,14.90
2019-04-05T11:08:20.142Z,15.07
2019-04-05T11:10:49.485Z,15.97
2019-04-05T11:13:18.774Z,16.50
2019-04-05T11:15:48.355Z,17.10
2019-04-05T11:18:17.962Z,16.97
2019-04-05T11:20:49.649Z,16.17
2019-04-05T11:23:21.399Z,14.17
2019-04-05T11:25:50.157Z,13.27
2019-04-05T11:28:19.708Z,12.93
2019-04-05T11:30:49.056Z,14.03
2019-04-05T11:33:19.915Z,14.17
2019-04-05T11:35:49.817Z,11.93
2019-04-05T11:38:19.722Z,12.80
2019-04-05T11:40:49.681Z,11.57
2019-04-05T11:43:19.809Z,18.77
2019-04-05T11:45:50.803Z,13.23
2019-04-05T11:48:20.628Z,12.63
2019-04-05T11:50:49.906Z,14.80
2019-04-05T11:53:21.871Z,14.93
2019-04-05T11:55:50.579Z,13.80
2019-04-05T11:58:20.189Z,17.33
2019-04-05T12:01:00.329Z,17.40
2019-04-05T12:03:31.187Z,15.03
2019-04-05T12:06:00.476Z,17.03
2019-04-05T12:08:30.090Z,17.87
2019-04-05T12:10:59.363Z,16.30
2019-04-05T12:13:28.989Z,15.77
2019-04-05T12:15:58.603Z,16.57
2019-04-05T12:18:28.204Z,17.93
2019-04-05T12:21:00.296Z,13.87
2019-04-05T12:23:28.492Z,11.43
2019-04-05T12:25:57.767Z,15.37
2019-04-05T12:28:27.059Z,15.90
2019-04-05T12:30:57.647Z,14.47
2019-04-05T12:33:27.285Z,17.20
2019-04-05T12:35:56.969Z,13.80
2019-04-05T12:38:33.513Z,13.17
2019-04-05T12:41:04.348Z,12.27
2019-04-05T12:43:34.439Z,11.40
2019-04-05T12:46:05.018Z,9.80
2019-04-05T12:48:34.296Z,13.23
2019-04-05T12:51:05.472Z,12.53
2019-04-05T12:53:35.206Z,13.60
2019-04-05T12:56:04.619Z,11.03
2019-04-05T12:58:33.909Z,13.17
2019-04-05T13:01:03.193Z,13.13
2019-04-05T13:03:32.481Z,11.70
2019-04-05T13:06:01.826Z,12.40
2019-04-05T13:08:31.115Z,12.10
2019-04-05T13:11:00.393Z,15.10
2019-04-05T13:13:30.019Z,11.90
2019-04-05T13:15:59.765Z,11.87
2019-04-05T13:18:31.585Z,10.83
2019-04-05T13:21:02.368Z,10.90
2019-04-05T13:23:31.635Z,11.07
2019-04-05T13:26:01.228Z,11.53
2019-04-05T13:28:30.836Z,12.00
2019-04-05T13:31:00.444Z,13.10
2019-04-05T13:33:29.735Z,12.73
2019-04-05T13:35:59.361Z,13.47
2019-04-05T13:38:29.815Z,13.90
2019-04-05T13:41:01.524Z,14.03
2019-04-05T13:43:31.869Z,13.20
2019-04-05T13:46:01.624Z,11.10
2019-04-05T13:48:30.914Z,15.30
2019-04-05T13:51:00.189Z,14.13
2019-04-05T13:53:29.485Z,13.50
2019-04-05T13:55:59.080Z,15.47
2019-04-05T13:58:28.684Z,12.50
2019-04-05T14:00:57.981Z,13.30
2019-04-05T14:03:27.275Z,13.43
2019-04-05T14:05:56.897Z,13.03
2019-04-05T14:08:26.607Z,13.30
2019-04-05T14:10:55.884Z,12.30
2019-04-05T14:13:25.516Z,15.30
2019-04-05T14:15:54.879Z,13.63
2019-04-05T14:18:24.170Z,15.70
2019-04-05T14:20:53.462Z,13.23
2019-04-05T14:23:23.952Z,14.43
2019-04-05T14:25:53.420Z,11.20
2019-04-05T14:28:22.963Z,11.83
2019-04-05T14:30:52.263Z,13.70
2019-04-05T14:33:24.543Z,13.73
2019-04-05T14:35:54.735Z,14.90
2019-04-05T14:38:23.881Z,11.70
2019-04-05T14:40:53.171Z,11.20
2019-04-05T14:43:22.448Z,10.07
2019-04-05T14:45:51.806Z,12.47
2019-04-05T14:48:21.082Z,15.20
2019-04-05T14:50:50.375Z,12.40
2019-04-05T14:53:19.958Z,13.83
2019-04-05T14:55:49.245Z,13.20
2019-04-05T14:58:19.346Z,11.63
2019-04-05T15:00:49.114Z,14.57
2019-04-05T15:03:18.364Z,14.70
2019-04-05T15:05:47.993Z,15.30
2019-04-05T15:08:20.351Z,14.20
2019-04-05T15:10:51.240Z,13.60
2019-04-05T15:13:20.090Z,13.53
2019-04-05T15:15:49.693Z,11.73
2019-04-05T15:18:19.770Z,10.97
2019-04-05T15:20:49.423Z,10.80
2019-04-05T15:23:19.030Z,10.60
2019-04-05T15:25:49.927Z,12.33
2019-04-05T15:28:19.698Z,10.10
2019-04-05T15:30:49.673Z,10.70
2019-04-05T15:33:19.046Z,9.27
2019-04-05T15:35:48.415Z,12.10
2019-04-05T15:38:17.697Z,12.23
2019-04-05T15:40:47.052Z,11.57
2019-04-05T15:43:16.333Z,10.67
2019-04-05T15:45:45.626Z,12.20
2019-04-05T15:48:15.213Z,13.63
2019-04-05T15:50:44.514Z,10.77
2019-04-05T15:53:13.774Z,9.33
2019-04-05T15:55:43.317Z,11.63
2019-04-05T15:58:12.976Z,12.60
2019-04-05T16:00:46.318Z,11.17
2019-04-05T16:03:16.443Z,14.67
2019-04-05T16:05:47.073Z,10.90
2019-04-05T16:08:19.039Z,11.03
2019-04-05T16:10:48.953Z,12.50
2019-04-05T16:13:18.234Z,10.73
2019-04-05T16:15:47.521Z,9.83
2019-04-05T16:18:16.806Z,13.60
2019-04-05T16:20:46.358Z,12.93
2019-04-05T16:23:15.638Z,11.60
2019-04-05T16:25:45.171Z,10.53
2019-04-05T16:28:14.447Z,11.97
2019-04-05T16:30:44.067Z,13.30
2019-04-05T16:33:13.677Z,12.00
2019-04-05T16:35:42.978Z,12.77
2019-04-05T16:38:12.605Z,13.00
2019-04-05T16:40:41.883Z,13.00
2019-04-05T16:43:11.495Z,15.20
2019-04-05T16:45:40.855Z,13.83
2019-04-05T16:48:10.409Z,14.03
2019-04-05T16:50:42.270Z,15.37
2019-04-05T16:53:11.014Z,13.37
2019-04-05T16:55:40.303Z,14.20
2019-04-05T16:58:09.600Z,13.87
2019-04-05T17:00:39.154Z,17.53
2019-04-05T17:03:08.447Z,11.90
2019-04-05T17:05:37.729Z,13.53
2019-04-05T17:08:07.368Z,14.83
2019-04-05T17:10:36.915Z,15.30
2019-04-05T17:13:06.202Z,13.73
2019-04-05T17:15:35.782Z,15.17
2019-04-05T17:18:05.082Z,14.20
2019-04-05T17:20:34.681Z,15.57
2019-04-05T17:23:03.971Z,13.30
2019-04-05T17:25:33.599Z,14.83
2019-04-05T17:28:02.896Z,14.33
2019-04-05T17:30:32.179Z,15.20
2019-04-05T17:33:01.472Z,13.00
2019-04-05T17:35:31.104Z,18.00
2019-04-05T17:38:00.640Z,16.97
2019-04-05T17:40:30.167Z,15.50
2019-04-05T17:42:59.456Z,13.03
2019-04-05T17:45:28.736Z,16.23
2019-04-05T17:47:58.031Z,16.10
2019-04-05T17:50:33.110Z,17.63
2019-04-05T17:53:11.953Z,15.80
2019-04-05T17:55:34.319Z,19.30
2019-04-05T17:58:06.274Z,12.90
2019-04-05T18:00:36.196Z,12.93
2019-04-05T18:03:05.899Z,12.43
2019-04-05T18:05:35.505Z,14.57
2019-04-05T18:08:05.043Z,14.00
2019-04-05T18:10:34.725Z,13.50
2019-04-05T18:13:04.328Z,14.40
2019-04-05T18:15:33.938Z,14.90
2019-04-05T18:18:03.242Z,15.70
2019-04-05T18:20:32.846Z,14.70
2019-04-05T18:23:02.457Z,17.90
2019-04-05T18:25:31.730Z,15.33
2019-04-05T18:28:01.362Z,14.57
2019-04-05T18:30:30.679Z,17.70
2019-04-05T18:32:59.966Z,15.00
2019-04-05T18:35:29.248Z,18.83
2019-04-05T18:37:58.539Z,14.70
2019-04-05T18:40:39.569Z,15.70
2019-04-05T18:42:59.195Z,15.30
2019-04-05T18:45:28.812Z,17.10
2019-04-05T18:47:58.103Z,15.87
2019-04-05T18:50:27.733Z,16.40
2019-04-05T18:52:57.335Z,16.77
2019-04-05T18:55:26.938Z,18.87
2019-04-05T18:57:56.545Z,15.00
2019-04-05T19:00:25.820Z,17.60
2019-04-05T19:02:55.454Z,15.70
2019-04-05T19:05:24.733Z,16.07
2019-04-05T19:07:54.022Z,19.57
2019-04-05T19:10:36.224Z,16.77
2019-04-05T19:12:54.696Z,16.47
2019-04-05T19:15:24.319Z,15.90
2019-04-05T19:17:53.611Z,16.37
2019-04-05T19:20:23.218Z,19.30
2019-04-05T19:22:52.510Z,19.37
2019-04-05T19:25:21.855Z,16.80
2019-04-05T19:27:51.201Z,15.10
2019-04-05T19:50:30.392Z,17.17
2019-04-05T19:52:59.999Z,18.13
2019-04-05T19:55:29.274Z,20.13
2019-04-05T19:57:58.556Z,15.57
2019-04-05T20:00:27.921Z,16.40
2019-04-05T20:02:57.212Z,16.20
2019-04-05T20:05:26.497Z,16.57
2019-04-05T20:07:55.782Z,15.80
2019-04-05T20:10:25.142Z,15.20
2019-04-05T20:12:54.711Z,15.13
2019-04-05T20:15:24.009Z,17.17
2019-04-05T20:17:53.291Z,17.30
2019-04-05T20:20:22.916Z,16.47
2019-04-05T20:22:52.523Z,16.00
2019-04-05T20:25:22.138Z,13.97
2019-04-05T20:27:51.413Z,13.67
2019-04-05T20:30:20.701Z,22.47
2019-04-05T20:32:50.239Z,16.50
2019-04-05T20:35:19.851Z,17.60
2019-04-05T20:37:49.126Z,13.00
2019-04-05T20:40:18.418Z,16.27
2019-04-05T20:42:47.999Z,15.50
2019-04-05T20:45:17.562Z,13.70
2019-04-05T20:47:47.169Z,13.10
2019-04-05T20:50:16.486Z,15.77
2019-04-05T20:52:46.079Z,16.03
2019-04-05T20:55:15.687Z,16.20
2019-04-05T20:57:45.291Z,15.50
2019-04-05T21:00:16.951Z,19.40
2019-04-05T21:02:46.549Z,16.70
2019-04-05T21:05:24.778Z,15.83
2019-04-05T21:07:46.867Z,17.27
2019-04-05T21:10:16.164Z,15.53
2019-04-05T21:12:45.440Z,17.93
2019-04-05T21:15:15.105Z,15.30
2019-04-05T21:17:44.376Z,16.73
2019-04-05T21:20:14.078Z,18.42
2019-04-05T21:22:43.350Z,20.13
2019-04-05T21:25:12.702Z,17.97
2019-04-05T21:27:42.322Z,16.80
2019-04-05T21:30:12.424Z,20.70
2019-04-05T21:32:42.055Z,17.47
2019-04-05T21:35:11.586Z,18.40
2019-04-05T21:37:40.865Z,21.63
2019-04-05T21:40:10.456Z,24.17
2019-04-05T21:42:39.737Z,20.00
2019-04-05T21:45:09.881Z,20.40
2019-04-05T21:47:39.498Z,17.70
2019-04-05T21:50:11.162Z,18.60
2019-04-05T21:52:40.443Z,21.15
2019-04-05T21:55:10.262Z,19.05
2019-04-05T21:57:39.538Z,18.82
2019-04-05T22:00:21.982Z,20.85
2019-04-05T22:02:51.251Z,18.62
2019-04-05T22:05:20.893Z,19.80
2019-04-05T22:07:51.524Z,18.45
2019-04-05T22:10:20.944Z,18.40
2019-04-05T22:12:50.221Z,19.05
2019-04-05T22:15:19.506Z,19.45
2019-04-05T22:17:49.119Z,20.12
2019-04-05T22:20:18.719Z,22.32
2019-04-05T22:22:48.022Z,21.33
2019-04-05T22:25:17.301Z,22.17
2019-04-05T22:27:46.581Z,18.67
2019-04-05T22:30:16.104Z,24.27
2019-04-05T22:32:45.376Z,22.02
2019-04-05T22:35:14.652Z,23.47
2019-04-05T22:37:43.946Z,20.37
2019-04-05T22:40:13.375Z,22.58
2019-04-05T22:42:42.702Z,21.37
2019-04-05T22:45:12.446Z,23.35
2019-04-05T22:47:41.716Z,20.23
2019-04-05T22:50:11.336Z,20.52
2019-04-05T22:52:40.607Z,21.77
2019-04-05T22:55:11.958Z,22.48
2019-04-05T22:57:41.442Z,20.40
2019-04-05T23:00:11.343Z,23.35
2019-04-05T23:02:40.922Z,24.12
2019-04-05T23:05:10.477Z,21.48
2019-04-05T23:07:39.751Z,19.32
2019-04-05T23:10:09.662Z,22.55
2019-04-05T23:12:38.933Z,22.10
2019-04-05T23:15:09.108Z,20.70
2019-04-05T23:17:38.623Z,23.95
2019-04-05T23:20:08.815Z,19.57
2019-04-05T23:22:38.077Z,20.65
2019-04-05T23:25:09.494Z,20.02
2019-04-05T23:27:38.768Z,22.20
2019-04-05T23:30:09.689Z,20.68
2019-04-05T23:32:39.210Z,20.62
2019-04-05T23:35:08.719Z,26.23
2019-04-05T23:37:37.997Z,23.05
2019-04-05T23:40:07.806Z,20.27
2019-04-05T23:42:37.071Z,19.95
2019-04-05T23:45:07.312Z,21.85
2019-04-05T23:47:36.590Z,23.10
2019-04-05T23:50:07.186Z,23.00
2019-04-05T23:52:36.466Z,23.65
2019-04-05T23:55:07.196Z,21.00
2019-04-05T23:57:36.486Z,21.05
